createdAt,value
2023-12-11T00:00:58.562Z,90.09
2023-12-11T00:02:00.629Z,90.18
2023-12-11T00:03:02.619Z,90.41
2023-12-11T00:04:04.952Z,90.35
2023-12-11T00:05:09.810Z,90.23
2023-12-11T00:06:11.974Z,90.12
2023-12-11T00:07:13.998Z,90.33
2023-12-11T00:08:16.001Z,90.66
2023-12-11T00:09:18.010Z,90.46
2023-12-11T00:10:20.094Z,90.59
2023-12-11T00:11:22.122Z,90.86
2023-12-11T00:12:24.084Z,90.76
2023-12-11T00:13:26.081Z,90.91
2023-12-11T00:14:28.028Z,91.68
2023-12-11T00:15:30.056Z,92.28
2023-12-11T00:16:32.055Z,92.38
2023-12-11T00:17:34.602Z,92.36
2023-12-11T00:18:36.930Z,92.82
2023-12-11T00:19:39.007Z,92.93
2023-12-11T00:20:40.998Z,92.59
2023-12-11T00:21:43.195Z,92.38
2023-12-11T00:22:45.225Z,92.43
2023-12-11T00:23:47.480Z,91.92
2023-12-11T00:24:49.527Z,91.83
2023-12-11T00:25:51.496Z,91.99
2023-12-11T00:26:53.534Z,91.95
2023-12-11T00:27:55.553Z,91.75
2023-12-11T00:28:58.548Z,91.58
2023-12-11T00:30:01.599Z,91.42
2023-12-11T00:31:08.220Z,90.97
2023-12-11T00:32:11.374Z,90.33
2023-12-11T00:33:13.558Z,90.17
2023-12-11T00:34:16.099Z,89.97
2023-12-11T00:35:19.550Z,89.74
2023-12-11T00:36:21.593Z,89.88
2023-12-11T00:37:23.564Z,89.74
2023-12-11T00:38:28.353Z,89.53
2023-12-11T00:39:30.376Z,90.00
2023-12-11T00:40:32.386Z,90.59
2023-12-11T00:41:34.465Z,90.43
2023-12-11T00:42:36.479Z,90.67
2023-12-11T00:43:45.029Z,90.95
2023-12-11T00:44:48.535Z,90.98
2023-12-11T00:45:50.533Z,90.62
2023-12-11T00:46:52.495Z,90.36
2023-12-11T00:47:54.961Z,90.65
2023-12-11T00:48:57.218Z,90.61
2023-12-11T00:49:59.416Z,90.74
2023-12-11T00:51:01.473Z,90.18
2023-12-11T00:52:03.609Z,90.05
2023-12-11T00:53:05.591Z,90.64
2023-12-11T00:54:07.565Z,90.78
2023-12-11T00:55:09.879Z,90.38
2023-12-11T00:56:11.894Z,90.25
2023-12-11T00:57:13.957Z,89.99
2023-12-11T00:58:16.054Z,89.86
2023-12-11T00:59:18.149Z,90.25
2023-12-11T01:00:20.163Z,90.16
2023-12-11T01:01:22.161Z,89.66
2023-12-11T01:02:24.170Z,90.23
2023-12-11T01:03:28.791Z,89.71
2023-12-11T01:04:31.015Z,90.05
2023-12-11T01:05:33.072Z,90.22
2023-12-11T01:06:35.096Z,90.27
2023-12-11T01:07:37.088Z,90.77
2023-12-11T01:08:42.083Z,91.51
2023-12-11T01:09:44.062Z,91.44
2023-12-11T01:10:46.190Z,91.42
2023-12-11T01:11:48.208Z,91.12
2023-12-11T01:12:50.291Z,91.30
2023-12-11T01:13:52.274Z,91.51
2023-12-11T01:14:54.269Z,91.48
2023-12-11T01:15:56.247Z,91.43
2023-12-11T01:16:58.272Z,91.49
2023-12-11T01:18:00.397Z,91.39
2023-12-11T01:19:02.575Z,91.45
2023-12-11T01:20:05.398Z,90.85
2023-12-11T01:21:07.531Z,90.59
2023-12-11T01:22:09.636Z,90.34
2023-12-11T01:23:11.737Z,90.10
2023-12-11T01:24:13.814Z,90.28
2023-12-11T01:25:15.839Z,90.33
2023-12-11T01:26:18.205Z,90.42
2023-12-11T01:27:20.166Z,90.89
2023-12-11T01:28:22.153Z,91.17
2023-12-11T01:29:24.205Z,91.11
2023-12-11T01:30:26.170Z,91.18
2023-12-11T01:31:28.204Z,91.36
2023-12-11T01:32:30.261Z,91.25
2023-12-11T01:33:32.438Z,91.69
2023-12-11T01:34:34.505Z,91.58
2023-12-11T01:35:37.523Z,91.64
2023-12-11T01:36:39.702Z,91.75
2023-12-11T01:37:43.400Z,91.21
2023-12-11T01:38:45.824Z,91.13
2023-12-11T01:39:47.921Z,91.11
2023-12-11T01:40:49.976Z,91.03
2023-12-11T01:41:52.137Z,91.01
2023-12-11T01:43:04.284Z,91.17
2023-12-11T01:44:12.846Z,91.21
2023-12-11T01:45:14.883Z,91.19
2023-12-11T01:46:16.926Z,91.10
2023-12-11T01:47:18.940Z,91.33
2023-12-11T01:48:21.089Z,91.41
2023-12-11T01:49:23.189Z,91.48
2023-12-11T01:50:25.199Z,91.58
2023-12-11T01:51:27.444Z,91.72
2023-12-11T01:52:29.393Z,91.77
2023-12-11T01:53:31.724Z,91.61
2023-12-11T01:54:33.772Z,91.63
2023-12-11T01:55:36.971Z,91.71
2023-12-11T01:56:38.964Z,91.60
2023-12-11T01:57:40.948Z,91.67
2023-12-11T01:58:42.965Z,91.74
2023-12-11T01:59:49.408Z,91.44
2023-12-11T02:00:52.465Z,91.45
2023-12-11T02:01:54.794Z,91.31
2023-12-11T02:02:57.000Z,91.42
2023-12-11T02:03:59.219Z,91.58
2023-12-11T02:05:01.488Z,91.30
2023-12-11T02:06:03.621Z,91.42
2023-12-11T02:07:07.583Z,91.56
2023-12-11T02:08:10.150Z,91.43
2023-12-11T02:09:12.354Z,91.70
2023-12-11T02:10:14.329Z,91.86
2023-12-11T02:11:16.395Z,91.59
2023-12-11T02:12:18.369Z,91.61
2023-12-11T02:13:21.615Z,91.61
2023-12-11T02:14:23.998Z,91.50
2023-12-11T02:15:38.934Z,91.44
2023-12-11T02:16:40.887Z,91.19
2023-12-11T02:17:45.864Z,91.36
2023-12-11T02:18:48.030Z,91.37
2023-12-11T02:19:53.073Z,90.84
2023-12-11T02:20:55.032Z,90.59
2023-12-11T02:21:57.000Z,90.51
2023-12-11T02:22:59.293Z,90.33
2023-12-11T02:24:03.379Z,90.58
2023-12-11T02:25:06.063Z,90.74
2023-12-11T02:26:18.486Z,91.24
2023-12-11T02:27:20.597Z,91.45
2023-12-11T02:28:22.775Z,91.31
2023-12-11T02:29:25.387Z,91.18
2023-12-11T02:30:30.497Z,91.11
2023-12-11T02:31:32.503Z,91.06
2023-12-11T02:32:34.538Z,90.99
2023-12-11T02:33:36.623Z,91.26
2023-12-11T02:34:38.810Z,91.16
2023-12-11T02:35:42.649Z,91.27
2023-12-11T02:36:44.699Z,91.34
2023-12-11T02:37:46.684Z,91.20
2023-12-11T02:38:48.728Z,91.16
2023-12-11T02:39:50.730Z,91.05
2023-12-11T02:40:52.691Z,91.00
2023-12-11T02:41:54.680Z,91.26
2023-12-11T02:42:56.873Z,91.32
2023-12-11T02:44:00.158Z,91.69
2023-12-11T02:45:02.257Z,91.62
2023-12-11T02:46:04.512Z,91.32
2023-12-11T02:47:06.624Z,91.40
2023-12-11T02:48:08.816Z,91.37
2023-12-11T02:49:10.922Z,91.36
2023-12-11T02:50:12.966Z,91.48
2023-12-11T02:51:25.248Z,91.60
2023-12-11T02:52:30.037Z,91.60
2023-12-11T02:53:32.026Z,91.67
2023-12-11T02:54:34.126Z,91.86
2023-12-11T02:55:36.075Z,92.10
2023-12-11T02:56:43.695Z,92.03
2023-12-11T02:57:45.648Z,92.39
2023-12-11T02:58:47.657Z,92.45
2023-12-11T02:59:49.712Z,92.62
2023-12-11T03:00:51.732Z,92.60
2023-12-11T03:01:53.781Z,92.49
2023-12-11T03:02:55.848Z,92.43
2023-12-11T03:03:57.873Z,92.70
2023-12-11T03:05:00.048Z,93.19
2023-12-11T03:06:04.697Z,92.92
2023-12-11T03:07:06.778Z,92.89
2023-12-11T03:08:08.754Z,92.72
2023-12-11T03:09:10.706Z,92.80
2023-12-11T03:10:12.719Z,92.93
2023-12-11T03:11:14.907Z,93.01
2023-12-11T03:12:16.931Z,93.19
2023-12-11T03:13:18.919Z,93.06
2023-12-11T03:14:20.870Z,92.89
2023-12-11T03:15:22.864Z,93.04
2023-12-11T03:16:24.831Z,92.94
2023-12-11T03:17:26.857Z,92.79
2023-12-11T03:18:29.028Z,93.38
2023-12-11T03:19:31.213Z,93.08
2023-12-11T03:20:33.194Z,93.09
2023-12-11T03:21:35.186Z,93.03
2023-12-11T03:22:37.176Z,93.34
2023-12-11T03:23:39.745Z,93.44
2023-12-11T03:24:41.833Z,93.56
2023-12-11T03:25:43.831Z,93.47
2023-12-11T03:26:45.782Z,93.27
2023-12-11T03:27:47.868Z,93.21
2023-12-11T03:28:49.877Z,93.38
2023-12-11T03:29:51.878Z,93.34
2023-12-11T03:30:53.868Z,93.29
2023-12-11T03:31:55.838Z,93.32
2023-12-11T03:32:57.850Z,93.08
2023-12-11T03:33:59.924Z,93.33
2023-12-11T03:35:01.992Z,93.27
2023-12-11T03:36:05.195Z,93.39
2023-12-11T03:37:11.208Z,93.54
2023-12-11T03:38:13.202Z,93.42
2023-12-11T03:39:15.640Z,93.65
2023-12-11T03:40:17.669Z,93.85
2023-12-11T03:41:19.808Z,93.23
2023-12-11T03:42:21.795Z,93.38
2023-12-11T03:43:24.249Z,93.40
2023-12-11T03:44:29.280Z,93.52
2023-12-11T03:45:31.348Z,93.47
2023-12-11T03:46:33.327Z,93.42
2023-12-11T03:47:35.492Z,93.34
2023-12-11T03:48:37.633Z,93.33
2023-12-11T03:49:39.828Z,93.13
2023-12-11T03:50:42.198Z,93.02
2023-12-11T03:51:44.774Z,93.13
2023-12-11T03:52:46.752Z,93.23
2023-12-11T03:53:48.710Z,93.36
2023-12-11T03:54:50.696Z,93.34
2023-12-11T03:55:54.093Z,93.11
2023-12-11T03:56:56.053Z,93.26
2023-12-11T03:57:58.053Z,93.33
2023-12-11T03:59:00.297Z,93.29
2023-12-11T04:00:04.739Z,93.49
2023-12-11T04:01:06.847Z,93.44
2023-12-11T04:02:09.049Z,93.29
2023-12-11T04:03:11.120Z,93.11
2023-12-11T04:04:13.171Z,93.56
2023-12-11T04:05:15.388Z,92.91
2023-12-11T04:06:17.443Z,93.10
2023-12-11T04:07:19.440Z,93.16
2023-12-11T04:08:21.390Z,93.39
2023-12-11T04:09:23.416Z,93.62
2023-12-11T04:10:25.368Z,93.75
2023-12-11T04:11:27.377Z,93.66
2023-12-11T04:12:29.335Z,93.43
2023-12-11T04:13:31.313Z,93.26
2023-12-11T04:14:33.264Z,93.26
2023-12-11T04:15:38.177Z,93.01
2023-12-11T04:16:43.554Z,93.19
2023-12-11T04:17:45.633Z,93.18
2023-12-11T04:18:47.774Z,93.06
2023-12-11T04:19:49.875Z,92.98
2023-12-11T04:20:51.868Z,93.28
2023-12-11T04:21:53.889Z,92.93
2023-12-11T04:22:55.948Z,93.18
2023-12-11T04:23:57.990Z,93.18
2023-12-11T04:24:59.984Z,93.25
2023-12-11T04:26:02.460Z,93.09
2023-12-11T04:27:04.736Z,93.28
2023-12-11T04:28:07.021Z,93.39
2023-12-11T04:29:09.068Z,93.37
2023-12-11T04:30:11.425Z,93.39
2023-12-11T04:31:13.573Z,93.11
2023-12-11T04:32:15.602Z,93.14
2023-12-11T04:33:17.742Z,93.03
2023-12-11T04:34:19.864Z,92.86
2023-12-11T04:35:21.872Z,93.00
2023-12-11T04:36:23.821Z,92.83
2023-12-11T04:37:25.781Z,92.62
2023-12-11T04:38:27.765Z,92.70
2023-12-11T04:39:29.766Z,92.36
2023-12-11T04:40:31.922Z,92.61
2023-12-11T04:41:33.911Z,92.61
2023-12-11T04:42:35.895Z,92.77
2023-12-11T04:43:37.937Z,92.69
2023-12-11T04:44:40.507Z,92.60
2023-12-11T04:45:42.532Z,92.41
2023-12-11T04:46:44.572Z,92.58
2023-12-11T04:47:46.661Z,92.28
2023-12-11T04:48:48.788Z,92.19
2023-12-11T04:49:50.997Z,92.05
2023-12-11T04:50:53.093Z,92.35
2023-12-11T04:51:55.261Z,92.44
2023-12-11T04:52:57.212Z,92.07
2023-12-11T04:53:59.897Z,92.26
2023-12-11T04:55:02.177Z,92.09
2023-12-11T04:56:08.205Z,92.22
2023-12-11T04:57:10.542Z,92.03
2023-12-11T04:58:12.596Z,92.16
2023-12-11T04:59:14.594Z,92.09
2023-12-11T05:00:18.221Z,92.17
2023-12-11T05:01:20.280Z,92.20
2023-12-11T05:02:22.401Z,92.33
2023-12-11T05:03:24.353Z,92.34
2023-12-11T05:04:27.512Z,91.72
2023-12-11T05:05:29.516Z,91.92
2023-12-11T05:06:31.479Z,91.79
2023-12-11T05:07:33.465Z,91.58
2023-12-11T05:08:35.452Z,91.36
2023-12-11T05:09:37.562Z,91.54
2023-12-11T05:10:39.524Z,91.68
2023-12-11T05:11:41.624Z,91.58
2023-12-11T05:12:43.681Z,91.76
2023-12-11T05:13:45.668Z,91.60
2023-12-11T05:14:47.675Z,91.36
2023-12-11T05:15:49.674Z,91.63
2023-12-11T05:16:51.653Z,91.28
2023-12-11T05:17:54.150Z,91.69
2023-12-11T05:18:56.271Z,91.79
2023-12-11T05:19:58.354Z,91.40
2023-12-11T05:21:06.767Z,91.98
2023-12-11T05:22:08.805Z,91.60
2023-12-11T05:23:10.840Z,91.98
2023-12-11T05:24:12.969Z,91.90
2023-12-11T05:25:15.283Z,91.96
2023-12-11T05:26:20.691Z,91.78
2023-12-11T05:27:25.486Z,91.48
2023-12-11T05:28:27.468Z,91.60
2023-12-11T05:29:29.464Z,91.03
2023-12-11T05:30:34.295Z,91.36
2023-12-11T05:31:36.363Z,91.23
2023-12-11T05:32:40.243Z,91.49
2023-12-11T05:33:42.492Z,91.25
2023-12-11T05:34:45.000Z,91.16
2023-12-11T05:35:47.038Z,91.36
2023-12-11T05:36:49.131Z,91.39
2023-12-11T05:37:51.145Z,91.04
2023-12-11T05:38:53.126Z,91.25
2023-12-11T05:40:01.751Z,91.29
2023-12-11T05:41:17.048Z,91.75
2023-12-11T05:42:19.017Z,91.12
2023-12-11T05:43:20.996Z,90.86
2023-12-11T05:44:23.019Z,91.06
2023-12-11T05:45:24.993Z,91.19
2023-12-11T05:46:27.074Z,91.15
2023-12-11T05:47:29.332Z,91.14
2023-12-11T05:48:31.697Z,91.69
2023-12-11T05:49:33.885Z,91.26
2023-12-11T05:50:37.138Z,91.32
2023-12-11T05:51:40.426Z,91.33
2023-12-11T05:52:42.555Z,91.32
2023-12-11T05:53:44.593Z,90.91
2023-12-11T05:54:46.612Z,91.29
2023-12-11T05:55:48.565Z,91.27
2023-12-11T05:56:50.580Z,91.46
2023-12-11T05:57:52.608Z,91.49
2023-12-11T05:58:55.776Z,91.80
2023-12-11T05:59:57.797Z,91.38
2023-12-11T06:00:59.800Z,91.80
2023-12-11T06:02:01.915Z,91.40
2023-12-11T06:03:03.923Z,91.35
2023-12-11T06:04:06.018Z,91.36
2023-12-11T06:05:09.666Z,91.36
2023-12-11T06:06:18.031Z,91.60
2023-12-11T06:07:19.982Z,91.81
2023-12-11T06:08:21.937Z,91.62
2023-12-11T06:09:23.918Z,92.00
2023-12-11T06:10:25.950Z,91.55
2023-12-11T06:11:27.992Z,91.65
2023-12-11T06:12:29.989Z,91.56
2023-12-11T06:13:35.079Z,91.52
2023-12-11T06:14:40.779Z,91.41
2023-12-11T06:15:42.912Z,91.31
2023-12-11T06:16:47.917Z,91.38
2023-12-11T06:17:50.045Z,91.16
2023-12-11T06:18:52.208Z,91.21
2023-12-11T06:19:54.344Z,91.27
2023-12-11T06:21:02.572Z,91.73
2023-12-11T06:22:05.589Z,91.47
2023-12-11T06:23:07.633Z,91.61
2023-12-11T06:24:09.625Z,91.53
2023-12-11T06:25:11.633Z,91.70
2023-12-11T06:26:43.864Z,91.24
2023-12-11T06:27:45.957Z,91.04
2023-12-11T06:28:47.940Z,91.27
2023-12-11T06:29:49.973Z,91.19
2023-12-11T06:30:52.495Z,90.90
2023-12-11T06:31:54.486Z,91.09
2023-12-11T06:32:56.530Z,90.83
2023-12-11T06:33:58.698Z,90.71
2023-12-11T06:35:00.839Z,90.48
2023-12-11T06:36:02.929Z,90.49
2023-12-11T06:37:05.157Z,90.85
2023-12-11T06:38:07.499Z,90.04
2023-12-11T06:39:09.503Z,90.28
2023-12-11T06:40:11.775Z,90.47
2023-12-11T06:41:13.777Z,90.15
2023-12-11T06:42:15.803Z,90.46
2023-12-11T06:43:17.781Z,90.57
2023-12-11T06:44:19.732Z,90.24
2023-12-11T06:45:21.667Z,89.88
2023-12-11T06:46:23.717Z,89.34
2023-12-11T06:47:25.737Z,89.30
2023-12-11T06:48:27.745Z,89.32
2023-12-11T06:49:29.855Z,89.29
2023-12-11T06:50:31.970Z,89.12
2023-12-11T06:51:36.252Z,88.80
2023-12-11T06:52:38.304Z,89.23
2023-12-11T06:53:41.168Z,89.14
2023-12-11T06:54:43.412Z,89.20
2023-12-11T06:55:45.362Z,88.90
2023-12-11T06:56:47.329Z,88.98
2023-12-11T06:57:49.373Z,88.86
2023-12-11T06:58:51.386Z,88.95
2023-12-11T06:59:53.736Z,89.09
2023-12-11T07:00:55.899Z,89.03
2023-12-11T07:01:58.046Z,88.97
2023-12-11T07:03:00.189Z,88.78
2023-12-11T07:04:02.623Z,88.68
2023-12-11T07:05:05.190Z,88.68
2023-12-11T07:06:07.697Z,88.81
2023-12-11T07:07:10.561Z,89.14
2023-12-11T07:08:12.621Z,88.89
2023-12-11T07:09:15.047Z,88.55
2023-12-11T07:10:17.049Z,89.05
2023-12-11T07:11:19.162Z,88.95
2023-12-11T07:12:21.158Z,88.69
2023-12-11T07:13:23.145Z,88.80
2023-12-11T07:14:25.435Z,88.63
2023-12-11T07:15:27.521Z,88.69
2023-12-11T07:16:29.471Z,88.59
2023-12-11T07:17:33.618Z,88.31
2023-12-11T07:18:37.811Z,87.73
2023-12-11T07:19:39.967Z,87.72
2023-12-11T07:20:42.731Z,87.87
2023-12-11T07:21:44.775Z,86.89
2023-12-11T07:22:47.296Z,87.14
2023-12-11T07:23:49.786Z,86.69
2023-12-11T07:24:51.895Z,86.83
2023-12-11T07:25:54.219Z,87.34
2023-12-11T07:26:56.311Z,87.19
2023-12-11T07:27:58.307Z,86.86
2023-12-11T07:29:01.296Z,87.06
2023-12-11T07:30:03.328Z,87.47
2023-12-11T07:31:06.935Z,87.54
2023-12-11T07:32:09.128Z,87.18
2023-12-11T07:33:11.221Z,86.96
2023-12-11T07:34:13.429Z,86.72
2023-12-11T07:35:15.714Z,86.63
2023-12-11T07:36:18.261Z,86.92
2023-12-11T07:37:20.312Z,87.09
2023-12-11T07:38:24.620Z,87.13
2023-12-11T07:39:26.568Z,87.20
2023-12-11T07:40:28.618Z,86.47
2023-12-11T07:41:33.694Z,86.50
2023-12-11T07:42:38.618Z,86.09
2023-12-11T07:43:40.597Z,86.35
2023-12-11T07:44:42.610Z,85.98
2023-12-11T07:45:44.625Z,86.49
2023-12-11T07:46:46.599Z,86.61
2023-12-11T07:47:48.716Z,87.21
2023-12-11T07:48:50.832Z,86.61
2023-12-11T07:49:52.987Z,86.76
2023-12-11T07:50:54.998Z,86.45
2023-12-11T07:51:57.029Z,86.74
2023-12-11T07:52:59.149Z,86.80
2023-12-11T07:54:01.102Z,86.93
2023-12-11T07:55:03.179Z,87.07
2023-12-11T07:56:05.521Z,87.35
2023-12-11T07:57:07.492Z,86.66
2023-12-11T07:58:09.576Z,86.95
2023-12-11T07:59:11.644Z,87.11
2023-12-11T08:00:15.251Z,86.96
2023-12-11T08:01:17.439Z,86.98
2023-12-11T08:02:19.594Z,86.75
2023-12-11T08:03:21.592Z,87.07
2023-12-11T08:04:23.695Z,86.95
2023-12-11T08:05:25.798Z,87.23
2023-12-11T08:06:28.988Z,86.86
2023-12-11T08:07:31.348Z,86.79
2023-12-11T08:08:33.499Z,86.80
2023-12-11T08:09:40.476Z,86.93
2023-12-11T08:10:42.687Z,87.30
2023-12-11T08:11:44.703Z,87.60
2023-12-11T08:12:55.574Z,87.02
2023-12-11T08:13:58.879Z,87.04
2023-12-11T08:15:00.974Z,87.33
2023-12-11T08:16:03.194Z,86.81
2023-12-11T08:17:06.058Z,86.91
2023-12-11T08:18:08.063Z,86.98
2023-12-11T08:19:10.188Z,87.40
2023-12-11T08:20:13.650Z,86.85
2023-12-11T08:21:18.832Z,87.34
2023-12-11T08:22:20.870Z,87.23
2023-12-11T08:23:23.106Z,87.30
2023-12-11T08:24:25.169Z,87.31
2023-12-11T08:25:27.142Z,87.04
2023-12-11T08:26:29.143Z,86.58
2023-12-11T08:27:31.344Z,86.14
2023-12-11T08:28:33.487Z,85.89
2023-12-11T08:29:36.334Z,85.92
2023-12-11T08:30:38.371Z,86.12
2023-12-11T08:31:40.343Z,85.99
2023-12-11T08:32:42.531Z,86.52
2023-12-11T08:33:45.086Z,86.40
2023-12-11T08:34:47.307Z,86.41
2023-12-11T08:35:49.326Z,86.46
2023-12-11T08:36:51.294Z,86.15
2023-12-11T08:37:53.960Z,86.41
2023-12-11T08:38:55.936Z,86.03
2023-12-11T08:39:58.097Z,86.38
2023-12-11T08:41:00.086Z,86.07
2023-12-11T08:42:02.053Z,86.70
2023-12-11T08:43:04.846Z,86.97
2023-12-11T08:44:07.182Z,87.22
2023-12-11T08:45:10.003Z,86.51
2023-12-11T08:46:12.187Z,86.30
2023-12-11T08:47:14.178Z,85.74
2023-12-11T08:48:16.229Z,85.43
2023-12-11T08:49:18.619Z,85.78
2023-12-11T08:50:20.928Z,85.11
2023-12-11T08:51:23.061Z,85.15
2023-12-11T08:52:25.060Z,84.26
2023-12-11T08:53:27.049Z,83.46
2023-12-11T08:54:30.704Z,83.58
2023-12-11T08:55:32.703Z,83.05
2023-12-11T08:56:34.712Z,81.94
2023-12-11T08:57:36.857Z,81.57
2023-12-11T08:58:38.904Z,80.39
2023-12-11T08:59:40.952Z,80.37
2023-12-11T09:00:43.461Z,79.76
2023-12-11T09:01:45.531Z,80.07
2023-12-11T09:02:47.599Z,80.20
2023-12-11T09:03:49.945Z,79.28
2023-12-11T09:04:55.046Z,79.31
2023-12-11T09:05:57.687Z,78.98
2023-12-11T09:07:00.430Z,78.70
2023-12-11T09:08:02.593Z,78.41
2023-12-11T09:09:07.293Z,77.45
2023-12-11T09:10:09.833Z,77.80
2023-12-11T09:11:11.857Z,76.88
2023-12-11T09:12:23.218Z,75.59
2023-12-11T09:13:33.178Z,76.62
2023-12-11T09:14:35.183Z,75.76
2023-12-11T09:15:37.848Z,76.46
2023-12-11T09:16:39.922Z,75.98
2023-12-11T09:17:42.891Z,75.50
2023-12-11T09:18:45.136Z,74.84
2023-12-11T09:19:54.300Z,74.73
2023-12-11T09:20:57.382Z,74.19
2023-12-11T09:21:59.498Z,75.23
2023-12-11T09:23:01.487Z,75.33
2023-12-11T09:24:05.131Z,75.15
2023-12-11T09:25:07.314Z,75.39
2023-12-11T09:26:09.308Z,75.73
2023-12-11T09:27:11.333Z,75.40
2023-12-11T09:28:13.347Z,75.83
2023-12-11T09:29:18.078Z,75.17
2023-12-11T09:30:20.045Z,75.40
2023-12-11T09:31:22.168Z,76.32
2023-12-11T09:32:26.628Z,76.92
2023-12-11T09:33:28.682Z,76.19
2023-12-11T09:34:30.956Z,75.82
2023-12-11T09:35:33.154Z,76.73
2023-12-11T09:36:35.152Z,76.97
2023-12-11T09:37:37.142Z,77.11
2023-12-11T09:38:39.150Z,76.86
2023-12-11T09:39:41.189Z,77.65
2023-12-11T09:40:43.215Z,78.42
2023-12-11T09:41:46.033Z,77.99
2023-12-11T09:42:48.361Z,78.20
2023-12-11T09:43:52.776Z,78.62
2023-12-11T09:44:55.818Z,77.81
2023-12-11T09:45:57.835Z,77.67
2023-12-11T09:47:09.458Z,77.26
2023-12-11T09:48:14.781Z,76.84
2023-12-11T09:49:18.153Z,77.21
2023-12-11T09:50:22.950Z,76.58
2023-12-11T09:51:25.267Z,77.97
2023-12-11T09:52:27.516Z,77.32
2023-12-11T09:53:31.436Z,77.17
2023-12-11T09:54:33.427Z,78.20
2023-12-11T09:55:35.846Z,77.33
2023-12-11T09:56:37.857Z,77.01
2023-12-11T09:57:41.088Z,76.98
2023-12-11T09:58:43.946Z,76.54
2023-12-11T09:59:47.196Z,76.22
2023-12-11T10:00:49.386Z,75.40
2023-12-11T10:01:51.698Z,76.05
2023-12-11T10:02:54.325Z,75.11
2023-12-11T10:03:56.353Z,75.31
2023-12-11T10:05:09.526Z,73.58
2023-12-11T10:06:11.723Z,73.33
2023-12-11T10:07:13.837Z,72.88
2023-12-11T10:08:17.384Z,71.88
2023-12-11T10:09:40.061Z,70.42
2023-12-11T10:10:42.058Z,70.34
2023-12-11T10:11:44.249Z,69.85
2023-12-11T10:12:46.844Z,70.61
2023-12-11T10:13:51.133Z,70.15
2023-12-11T10:15:03.481Z,69.78
2023-12-11T10:16:06.714Z,69.77
2023-12-11T10:17:18.106Z,69.51
2023-12-11T10:18:20.212Z,69.06
2023-12-11T10:19:34.764Z,68.18
2023-12-11T10:20:41.046Z,67.77
2023-12-11T10:21:43.407Z,66.69
2023-12-11T10:22:49.082Z,66.62
2023-12-11T10:24:14.712Z,66.58
2023-12-11T10:25:25.554Z,65.77
2023-12-11T10:26:27.836Z,65.93
2023-12-11T10:27:30.090Z,64.86
2023-12-11T10:28:32.919Z,64.56
2023-12-11T10:29:34.983Z,63.27
2023-12-11T10:30:49.565Z,62.55
2023-12-11T10:31:52.353Z,61.77
2023-12-11T10:32:55.630Z,60.83
2023-12-11T10:33:58.732Z,60.23
2023-12-11T10:35:03.976Z,59.74
2023-12-11T10:36:14.160Z,59.52
2023-12-11T10:37:16.518Z,58.59
2023-12-11T10:38:25.088Z,58.71
2023-12-11T10:39:27.625Z,58.79
2023-12-11T10:40:42.105Z,58.21
2023-12-11T10:41:47.154Z,58.05
2023-12-11T10:42:57.585Z,57.77
2023-12-11T10:44:08.927Z,57.81
2023-12-11T10:45:18.980Z,58.07
2023-12-11T10:46:20.987Z,57.81
2023-12-11T10:47:23.362Z,58.02
2023-12-11T10:48:25.439Z,56.15
2023-12-11T10:49:27.533Z,57.02
2023-12-11T10:50:29.624Z,57.59
2023-12-11T10:51:31.574Z,56.53
2023-12-11T10:52:34.061Z,56.12
2023-12-11T10:53:36.140Z,55.62
2023-12-11T10:54:43.360Z,55.64
2023-12-11T10:55:45.806Z,54.81
2023-12-11T10:56:50.409Z,54.25
2023-12-11T10:57:52.475Z,54.24
2023-12-11T10:58:54.475Z,54.78
2023-12-11T10:59:56.658Z,53.57
2023-12-11T11:01:01.165Z,53.42
2023-12-11T11:02:03.396Z,53.24
2023-12-11T11:03:06.290Z,52.82
2023-12-11T11:04:09.234Z,53.99
2023-12-11T11:05:12.159Z,53.71
2023-12-11T11:06:14.379Z,54.21
2023-12-11T11:07:22.937Z,54.63
2023-12-11T11:08:32.941Z,55.16
2023-12-11T11:10:00.481Z,56.37
2023-12-11T11:11:16.402Z,54.91
2023-12-11T11:12:35.702Z,54.77
2023-12-11T11:14:07.140Z,55.44
2023-12-11T11:15:11.300Z,54.90
2023-12-11T11:16:13.459Z,54.56
2023-12-11T11:17:17.773Z,54.81
2023-12-11T11:18:19.868Z,54.65
2023-12-11T11:19:22.007Z,54.09
2023-12-11T11:20:24.469Z,54.29
2023-12-11T11:21:26.496Z,54.91
2023-12-11T11:22:35.879Z,54.13
2023-12-11T11:23:43.775Z,53.97
2023-12-11T11:24:45.922Z,53.87
2023-12-11T11:25:54.714Z,52.52
2023-12-11T11:26:57.900Z,53.63
2023-12-11T11:28:00.178Z,53.33
2023-12-11T11:29:05.950Z,52.53
2023-12-11T11:30:09.083Z,52.91
2023-12-11T11:31:19.377Z,52.14
2023-12-11T11:32:56.352Z,52.17
2023-12-11T11:34:02.637Z,53.80
2023-12-11T11:35:04.945Z,53.16
2023-12-11T11:36:06.990Z,54.03
2023-12-11T11:37:09.680Z,53.71
2023-12-11T11:38:11.707Z,54.90
2023-12-11T11:39:13.816Z,54.72
2023-12-11T11:40:16.127Z,54.48
2023-12-11T11:41:30.461Z,55.79
2023-12-11T11:42:34.521Z,55.45
2023-12-11T11:43:36.509Z,56.74
2023-12-11T11:44:38.476Z,57.31
2023-12-11T11:45:40.608Z,57.38
2023-12-11T11:46:51.435Z,58.67
2023-12-11T11:47:53.413Z,57.33
2023-12-11T11:48:55.581Z,58.64
2023-12-11T11:50:14.564Z,58.54
2023-12-11T11:51:18.362Z,58.18
2023-12-11T11:52:29.219Z,58.64
2023-12-11T11:53:31.330Z,58.52
2023-12-11T11:54:34.123Z,57.94
2023-12-11T11:55:39.015Z,58.63
2023-12-11T11:56:46.393Z,58.78
2023-12-11T11:57:48.362Z,58.26
2023-12-11T11:58:50.448Z,58.56
2023-12-11T11:59:54.477Z,57.74
2023-12-11T12:01:06.776Z,57.60
2023-12-11T12:02:08.845Z,57.94
2023-12-11T12:03:12.129Z,57.85
2023-12-11T12:04:26.255Z,57.20
2023-12-11T12:05:28.419Z,58.13
2023-12-11T12:06:30.480Z,57.79
2023-12-11T12:07:32.684Z,58.71
2023-12-11T12:08:37.745Z,58.22
2023-12-11T12:09:40.220Z,58.58
2023-12-11T12:10:42.241Z,59.29
2023-12-11T12:11:44.193Z,59.05
2023-12-11T12:12:51.531Z,60.61
2023-12-11T12:13:53.642Z,60.52
2023-12-11T12:15:05.777Z,59.50
2023-12-11T12:16:07.999Z,60.09
2023-12-11T12:17:13.010Z,60.90
2023-12-11T12:18:15.218Z,61.01
2023-12-11T12:19:17.477Z,61.56
2023-12-11T12:20:20.102Z,61.31
2023-12-11T12:21:22.447Z,62.98
2023-12-11T12:22:24.478Z,62.55
2023-12-11T12:23:26.478Z,62.41
2023-12-11T12:24:28.820Z,62.49
2023-12-11T12:25:31.491Z,63.01
2023-12-11T12:26:33.664Z,63.21
2023-12-11T12:27:35.933Z,62.85
2023-12-11T12:28:37.921Z,63.07
2023-12-11T12:29:39.895Z,63.37
2023-12-11T12:30:41.882Z,63.00
2023-12-11T12:31:43.931Z,62.94
2023-12-11T12:32:46.550Z,63.18
2023-12-11T12:33:50.799Z,63.19
2023-12-11T12:34:55.689Z,63.99
2023-12-11T12:35:57.773Z,64.68
2023-12-11T12:37:01.064Z,65.24
2023-12-11T12:38:03.349Z,65.43
2023-12-11T12:39:05.705Z,66.30
2023-12-11T12:40:08.778Z,67.15
2023-12-11T12:41:13.721Z,66.07
2023-12-11T12:42:15.779Z,66.45
2023-12-11T12:43:17.929Z,65.61
2023-12-11T12:44:20.016Z,65.84
2023-12-11T12:45:34.224Z,66.03
2023-12-11T12:46:41.865Z,65.97
2023-12-11T12:47:49.593Z,65.93
2023-12-11T12:48:51.783Z,66.50
2023-12-11T12:49:53.872Z,65.99
2023-12-11T12:51:10.537Z,66.02
2023-12-11T12:52:12.638Z,66.65
2023-12-11T12:53:19.137Z,66.62
2023-12-11T12:54:21.314Z,66.44
2023-12-11T12:55:30.215Z,66.74
2023-12-11T12:56:33.067Z,66.54
2023-12-11T12:57:37.721Z,66.67
2023-12-11T12:58:40.001Z,66.74
2023-12-11T12:59:42.031Z,66.62
2023-12-11T13:00:44.192Z,66.53
2023-12-11T13:01:46.578Z,66.96
2023-12-11T13:02:49.645Z,66.47
2023-12-11T13:03:51.750Z,66.63
2023-12-11T13:04:54.664Z,66.60
2023-12-11T13:05:59.425Z,66.92
2023-12-11T13:07:11.748Z,66.80
2023-12-11T13:08:16.031Z,66.99
2023-12-11T13:09:31.483Z,66.84
2023-12-11T13:10:33.540Z,67.58
2023-12-11T13:11:46.716Z,67.66
2023-12-11T13:12:49.941Z,68.80
2023-12-11T13:13:56.250Z,69.23
2023-12-11T13:14:58.311Z,69.16
2023-12-11T13:16:00.337Z,70.41
2023-12-11T13:17:04.133Z,70.83
2023-12-11T13:18:06.124Z,70.62
2023-12-11T13:19:09.970Z,71.78
2023-12-11T13:20:12.609Z,71.90
2023-12-11T13:21:16.455Z,72.61
2023-12-11T13:22:18.521Z,72.58
2023-12-11T13:23:20.538Z,73.01
2023-12-11T13:24:22.999Z,73.38
2023-12-11T13:25:25.122Z,73.61
2023-12-11T13:26:27.546Z,73.35
2023-12-11T13:27:31.492Z,73.60
2023-12-11T13:28:33.620Z,73.75
2023-12-11T13:29:35.622Z,74.28
2023-12-11T13:30:37.722Z,74.87
2023-12-11T13:31:40.232Z,74.82
2023-12-11T13:32:42.449Z,75.28
2023-12-11T13:33:44.532Z,74.95
2023-12-11T13:34:46.650Z,75.43
2023-12-11T13:35:48.716Z,76.47